logo
Search for airport 
image banner adimage banner adimage banner ad
image banner ad

FADIAM - Diamond Valley

Located in , South Africa

ICAO - , IATA -

Data provided by Airmate  

General information

Coordinates: S30°16'19" E29°23'50"
Elevation is 4999 feet MSL.
 
View others Airports in Kwazulu-Natal

Operational data

Special qualification required
Current time UTC:
Current local time:
Weather at : - ( 0 km )
METAR: ZMCK 140530Z 32015MPS 9999 SCT033 M03/M08 Q1009 NOSIG
View NOTAMs / SUP AIP / TFR affecting this airport [VIEW]
Communications frequencies: [VIEW]

Runways:

RWY identifierQFULength (ft)Width (ft)SurfaceLDA (ft)
12110°164066GRASS
30290°164066GRASS

Airport contact information

Address: South Africa

Satellite view of FADIAM